Time;durP1;ratioP1;P1;durP2;ratioP2;P2;SDS_P1;SDS_P2;PMS_P1;PMS_P2;Temp;Humidity;BMP_temperature;BMP_pressure;BME280_temperature;BME280_humidity;BME280_pressure;Samples;Min_cycle;Max_cycle;Signal;HPM_P1;HPM_P2
2022/08/06 00:02:25;;;;;;;1.90;1.80;;;23.80;78.70;24.40;96829.00;;;;5035578;28;20263;-83
2022/08/06 00:04:52;;;;;;;2.10;1.90;;;23.80;79.00;24.50;96831.00;;;;5035608;28;20249;-83
2022/08/06 00:07:20;;;;;;;1.97;1.87;;;23.80;78.90;24.40;96836.00;;;;5036211;28;20201;-83
2022/08/06 00:09:47;;;;;;;3.73;1.80;;;23.80;78.90;24.40;96833.00;;;;5045960;28;20231;-84
2022/08/06 00:12:15;;;;;;;2.30;2.10;;;23.80;78.80;24.40;96841.00;;;;5056303;28;20611;-83
2022/08/06 00:14:42;;;;;;;1.80;1.67;;;23.80;78.60;24.30;96837.00;;;;5054847;28;20295;-83
2022/08/06 00:17:10;;;;;;;1.53;1.43;;;23.80;78.60;24.30;96839.00;;;;5055375;28;20288;-82
2022/08/06 00:19:37;;;;;;;1.80;1.70;;;23.80;78.50;24.30;96848.00;;;;5055399;28;20281;-82
2022/08/06 00:22:04;;;;;;;1.97;1.60;;;23.70;78.10;24.20;96848.00;;;;5055022;28;20226;-83
2022/08/06 00:24:32;;;;;;;1.93;1.83;;;23.70;78.00;24.20;96861.00;;;;5055317;28;20324;-85
2022/08/06 00:26:59;;;;;;;2.63;1.90;;;23.70;78.20;24.20;96862.00;;;;5055132;28;20272;-83
2022/08/06 00:29:26;;;;;;;2.10;1.90;;;23.70;78.20;24.10;96868.00;;;;5054927;28;20299;-83
2022/08/06 00:31:53;;;;;;;1.73;1.63;;;23.60;78.10;24.10;96871.00;;;;5051289;28;20205;-84
2022/08/06 00:34:22;;;;;;;1.77;1.67;;;23.60;78.30;24.00;96883.00;;;;5053735;28;20220;-83
2022/08/06 00:36:49;;;;;;;2.20;2.07;;;23.50;78.40;24.00;96877.00;;;;5052115;28;20224;-84
2022/08/06 00:39:16;;;;;;;4.30;1.90;;;23.50;78.60;24.00;96878.00;;;;5034878;28;20233;-83
2022/08/06 00:41:44;;;;;;;2.37;2.17;;;23.50;78.80;24.00;96889.00;;;;5051486;28;20304;-83
2022/08/06 00:44:11;;;;;;;1.83;1.73;;;23.50;79.10;23.90;96886.00;;;;5053898;28;20231;-83
2022/08/06 00:46:38;;;;;;;1.97;1.87;;;23.40;79.20;23.90;96887.00;;;;5054318;28;20297;-83
2022/08/06 00:49:06;;;;;;;3.07;2.10;;;23.40;79.30;23.90;96894.00;;;;5054323;28;20666;-83
2022/08/06 00:51:35;;;;;;;3.53;2.43;;;23.40;79.40;23.90;96897.00;;;;5054550;28;20215;-83
2022/08/06 00:54:03;;;;;;;2.77;2.50;;;23.40;80.30;23.90;96897.00;;;;5054122;28;20248;-83
2022/08/06 00:56:30;;;;;;;2.20;2.00;;;23.40;79.50;23.90;96894.00;;;;5042980;28;20228;-83
2022/08/06 00:58:57;;;;;;;3.53;2.17;;;23.40;79.60;23.90;96894.00;;;;5054711;28;20279;-84
2022/08/06 01:01:24;;;;;;;2.77;2.30;;;23.30;79.90;23.80;96894.00;;;;5053800;28;20224;-82
2022/08/06 01:03:51;;;;;;;2.83;2.00;;;23.30;80.00;23.80;96893.00;;;;5046478;28;20709;-83
2022/08/06 01:06:19;;;;;;;8.13;2.30;;;23.30;79.90;23.80;96897.00;;;;5053889;28;20287;-83
2022/08/06 01:08:47;;;;;;;2.77;2.07;;;23.30;80.20;23.80;96889.00;;;;5054715;28;20197;-83
2022/08/06 01:11:14;;;;;;;2.40;2.27;;;23.30;81.10;23.80;96878.00;;;;5047652;28;20256;-84
2022/08/06 01:13:42;;;;;;;1.83;1.73;;;23.30;80.40;23.80;96874.00;;;;5056804;28;20228;-82
2022/08/06 01:16:16;;;;;;;2.37;2.20;;;23.20;80.50;23.80;96866.00;;;;5047218;28;20231;-82
2022/08/06 01:18:55;;;;;;;2.30;2.00;;;23.20;80.90;23.80;96857.00;;;;5053677;28;20232;-82
2022/08/06 01:21:54;;;;;;;2.60;2.37;;;23.20;81.20;23.80;96853.00;;;;5053472;28;20204;-82
2022/08/06 01:24:54;;;;;;;2.50;2.30;;;23.20;81.70;23.80;96870.00;;;;5049262;28;20252;-82
2022/08/06 01:27:46;;;;;;;2.23;2.00;;;23.30;82.90;23.90;96860.00;;;;5053869;28;20220;-83
2022/08/06 01:30:17;;;;;;;2.30;2.07;;;23.30;81.80;23.90;96855.00;;;;5040558;28;20289;-83
2022/08/06 01:32:52;;;;;;;3.53;2.17;;;23.30;81.10;23.90;96851.00;;;;5053303;28;20278;-82
2022/08/06 01:35:27;;;;;;;2.70;2.50;;;23.30;81.10;23.90;96868.00;;;;5053395;28;20247;-81
2022/08/06 01:38:01;;;;;;;1.87;1.77;;;23.30;81.30;23.90;96859.00;;;;5051715;28;20776;-86
2022/08/06 01:40:35;;;;;;;2.53;2.33;;;23.30;81.60;23.90;96864.00;;;;5046494;28;20209;-82
2022/08/06 01:43:09;;;;;;;3.20;2.07;;;23.30;81.40;23.90;96866.00;;;;5059378;28;20225;-82
2022/08/06 01:45:39;;;;;;;2.30;2.10;;;23.30;81.40;23.90;96871.00;;;;5068521;28;20211;-81
2022/08/06 01:48:14;;;;;;;2.90;1.90;;;23.30;81.30;23.90;96862.00;;;;5069250;28;20621;-82
2022/08/06 01:50:48;;;;;;;2.27;2.07;;;23.30;81.50;23.90;96854.00;;;;5048615;28;20268;-82
2022/08/06 01:53:21;;;;;;;2.33;2.07;;;23.30;81.40;23.90;96865.00;;;;5052815;28;20208;-82
2022/08/06 01:55:54;;;;;;;1.87;1.77;;;23.30;81.40;23.90;96866.00;;;;5052469;28;20244;-82
2022/08/06 01:58:31;;;;;;;2.90;2.10;;;23.30;81.10;23.90;96859.00;;;;5053084;28;20192;-83
2022/08/06 02:01:01;;;;;;;2.53;1.80;;;23.30;81.20;23.80;96855.00;;;;5052667;28;20220;-84
2022/08/06 02:03:33;;;;;;;2.30;2.10;;;23.20;80.80;23.80;96853.00;;;;5052806;28;20283;-82
2022/08/06 02:06:02;;;;;;;2.17;2.07;;;23.20;81.00;23.90;96852.00;;;;5053207;28;20330;-82
2022/08/06 02:08:37;;;;;;;2.30;2.10;;;23.20;81.20;23.90;96852.00;;;;5051530;28;20275;-82
2022/08/06 02:11:09;;;;;;;2.80;2.10;;;23.30;81.40;23.90;96852.00;;;;5052501;28;20196;-82
2022/08/06 02:13:41;;;;;;;2.10;1.90;;;23.30;81.40;23.90;96857.00;;;;5052332;28;20198;-83
2022/08/06 02:16:13;;;;;;;1.93;1.83;;;23.30;81.70;23.90;96861.00;;;;5052584;28;20268;-82
2022/08/06 02:18:45;;;;;;;2.20;2.00;;;23.30;81.80;23.90;96852.00;;;;5052461;28;20635;-82
2022/08/06 02:21:20;;;;;;;2.13;1.97;;;23.30;81.60;23.90;96858.00;;;;5052121;28;20223;-81
2022/08/06 02:23:49;;;;;;;2.43;2.23;;;23.30;81.70;24.00;96863.00;;;;5052200;28;20216;-82
2022/08/06 02:26:20;;;;;;;2.70;2.50;;;23.30;81.60;24.00;96866.00;;;;5052387;28;20203;-82
2022/08/06 02:28:53;;;;;;;2.60;2.40;;;23.30;81.60;24.00;96850.00;;;;5052003;28;20259;-82
2022/08/06 02:31:20;;;;;;;2.70;2.50;;;23.40;81.90;24.00;96859.00;;;;5052383;28;20232;-83
2022/08/06 02:33:47;;;;;;;3.13;2.70;;;23.40;81.80;24.00;96859.00;;;;5047675;28;20231;-82
2022/08/06 02:36:20;;;;;;;3.07;2.80;;;23.40;81.80;24.10;96863.00;;;;5051965;28;20576;-82
2022/08/06 02:38:56;;;;;;;3.70;3.40;;;23.40;82.00;24.10;96859.00;;;;5052733;28;20177;-82
2022/08/06 02:41:32;;;;;;;4.47;4.07;;;23.40;81.90;24.10;96861.00;;;;5052131;28;20216;-82
2022/08/06 02:44:12;;;;;;;5.27;4.87;;;23.40;82.00;24.10;96855.00;;;;5052162;28;20290;-83
2022/08/06 02:46:45;;;;;;;5.30;4.90;;;23.50;82.30;24.10;96856.00;;;;5052646;28;20197;-82
2022/08/06 02:49:21;;;;;;;6.23;5.60;;;23.50;82.00;24.10;96854.00;;;;5052407;28;20301;-82
2022/08/06 02:51:56;;;;;;;6.30;5.70;;;23.50;82.20;24.10;96860.00;;;;5052106;28;20200;-82
2022/08/06 02:54:32;;;;;;;6.23;5.73;;;23.50;82.20;24.10;96850.00;;;;5051046;28;20220;-83
2022/08/06 02:57:05;;;;;;;6.73;6.20;;;23.50;82.10;24.10;96849.00;;;;5053580;28;20271;-83
2022/08/06 02:59:43;;;;;;;7.30;6.67;;;23.50;82.00;24.10;96852.00;;;;5056298;28;20220;-82
2022/08/06 03:02:15;;;;;;;7.80;7.00;;;23.50;81.80;24.10;96854.00;;;;5054634;28;20300;-83
2022/08/06 03:04:49;;;;;;;7.30;6.67;;;23.50;81.50;24.10;96855.00;;;;5056243;28;20575;-82
2022/08/06 03:07:27;;;;;;;7.37;6.67;;;23.50;81.70;24.10;96866.00;;;;5056085;28;20173;-82
2022/08/06 03:09:57;;;;;;;7.93;7.17;;;23.50;82.00;24.10;96871.00;;;;5055827;28;20189;-82
2022/08/06 03:12:25;;;;;;;8.27;7.57;;;23.50;81.70;24.10;96870.00;;;;5055563;28;20674;-83
2022/08/06 03:14:55;;;;;;;8.03;7.33;;;23.50;81.80;24.10;96871.00;;;;5035033;28;20254;-83
2022/08/06 03:17:24;;;;;;;7.30;6.70;;;23.50;82.00;24.10;96877.00;;;;5037184;28;20280;-83
2022/08/06 03:19:53;;;;;;;7.10;6.50;;;23.60;82.10;24.20;96875.00;;;;5055540;28;20197;-82
2022/08/06 03:22:23;;;;;;;6.60;6.03;;;23.60;82.10;24.20;96881.00;;;;5055653;28;20568;-83
2022/08/06 03:24:52;;;;;;;7.17;6.57;;;23.60;82.10;24.20;96883.00;;;;5045374;28;20247;-83
2022/08/06 03:27:23;;;;;;;6.70;6.10;;;23.50;82.00;24.20;96883.00;;;;5055473;28;20273;-82
2022/08/06 03:29:54;;;;;;;6.70;6.20;;;23.60;82.30;24.20;96882.00;;;;5036354;28;20201;-84
2022/08/06 03:32:23;;;;;;;6.97;6.37;;;23.60;81.90;24.10;96874.00;;;;5051510;28;20201;-84
2022/08/06 03:34:52;;;;;;;6.57;6.03;;;23.60;81.70;24.10;96881.00;;;;5055221;28;20342;-83
2022/08/06 03:37:21;;;;;;;6.10;5.50;;;23.50;81.50;24.00;96882.00;;;;5056017;28;20193;-83
2022/08/06 03:39:50;;;;;;;5.40;5.00;;;23.50;81.50;24.00;96885.00;;;;5055466;28;20189;-83
2022/08/06 03:42:19;;;;;;;5.27;4.87;;;23.50;81.40;23.90;96883.00;;;;5055614;28;20221;-84
2022/08/06 03:44:46;;;;;;;5.40;4.90;;;23.40;81.30;23.90;96889.00;;;;5054373;28;20597;-86
2022/08/06 03:47:24;;;;;;;5.40;5.00;;;23.40;81.50;23.80;96892.00;;;;5055366;28;20232;-85
2022/08/06 03:50:02;;;;;;;4.90;4.50;;;23.40;82.00;23.80;96892.00;;;;5054842;28;20551;-84
2022/08/06 03:52:36;;;;;;;4.30;3.87;;;23.30;82.00;23.70;96890.00;;;;5054968;28;20232;-85
2022/08/06 03:55:07;;;;;;;4.10;3.67;;;23.30;81.80;23.70;96898.00;;;;5054299;28;20217;-85
2022/08/06 03:57:41;;;;;;;4.00;3.70;;;23.20;81.70;23.60;96890.00;;;;5054732;28;20216;-84
2022/08/06 04:00:11;;;;;;;3.87;3.57;;;23.20;81.60;23.60;96899.00;;;;5054808;28;20185;-85
2022/08/06 04:02:45;;;;;;;4.37;4.07;;;23.10;81.60;23.50;96902.00;;;;5057804;28;20276;-85
2022/08/06 04:05:15;;;;;;;4.10;3.77;;;23.10;81.80;23.50;96909.00;;;;5063344;28;20240;-86
2022/08/06 04:07:42;;;;;;;3.87;3.57;;;23.10;81.70;23.50;96912.00;;;;5047221;28;20197;-85
2022/08/06 04:10:12;;;;;;;4.27;3.90;;;23.00;82.00;23.40;96907.00;;;;5061187;28;20272;-86
2022/08/06 04:12:41;;;;;;;3.17;2.97;;;23.00;82.00;23.40;96923.00;;;;5063505;28;20303;-84
2022/08/06 04:15:11;;;;;;;3.20;2.90;;;23.00;81.70;23.40;96923.00;;;;5059457;28;20221;-85
2022/08/06 04:17:45;;;;;;;3.07;2.77;;;22.90;81.60;23.30;96922.00;;;;5058911;28;20223;-86
2022/08/06 04:20:15;;;;;;;2.90;2.70;;;22.90;81.60;23.30;96933.00;;;;5060680;28;20203;-84
2022/08/06 04:22:43;;;;;;;2.60;2.40;;;22.80;81.40;23.30;96932.00;;;;5056364;28;20233;-84
2022/08/06 04:25:12;;;;;;;1.80;1.70;;;22.80;81.20;23.20;96940.00;;;;5056812;28;20298;-83
2022/08/06 04:27:42;;;;;;;1.80;1.70;;;22.80;81.80;23.10;96945.00;;;;5056431;28;20235;-84
2022/08/06 04:30:12;;;;;;;1.57;1.47;;;22.70;81.80;23.10;96949.00;;;;5057072;28;20208;-84
2022/08/06 04:32:44;;;;;;;1.20;1.10;;;22.70;81.30;23.00;96957.00;;;;5064221;28;20204;-83
2022/08/06 04:35:13;;;;;;;1.07;1.07;;;22.60;81.10;23.00;96959.00;;;;5038323;28;20709;-84
2022/08/06 04:37:41;;;;;;;1.40;1.10;;;22.60;81.10;23.00;96961.00;;;;5058272;28;20230;-84
2022/08/06 04:40:11;;;;;;;1.50;1.40;;;22.50;81.20;22.90;96962.00;;;;5056685;28;20626;-84
2022/08/06 04:42:38;;;;;;;1.60;1.50;;;22.50;81.20;22.90;96958.00;;;;5054705;28;20289;-82
2022/08/06 04:45:10;;;;;;;1.70;1.60;;;22.50;81.10;22.80;96951.00;;;;5053935;28;20247;-85
2022/08/06 04:47:41;;;;;;;1.70;1.60;;;22.40;80.80;22.70;96969.00;;;;5050442;28;20206;-84
2022/08/06 04:50:11;;;;;;;2.20;2.10;;;22.40;80.20;22.60;96968.00;;;;5053064;28;20199;-84
2022/08/06 04:52:39;;;;;;;2.33;2.13;;;22.30;80.00;22.60;96969.00;;;;5053176;28;20676;-84
2022/08/06 04:55:08;;;;;;;2.47;2.27;;;22.20;80.00;22.50;96971.00;;;;5053815;28;20644;-84
2022/08/06 04:57:35;;;;;;;2.37;2.10;;;22.20;80.00;22.40;96970.00;;;;5053499;28;20203;-84
2022/08/06 05:00:03;;;;;;;2.40;2.23;;;22.10;80.50;22.30;96970.00;;;;5052873;28;20197;-83
2022/08/06 05:02:31;;;;;;;2.43;2.33;;;22.00;79.70;22.30;96980.00;;;;5051727;28;20224;-84
2022/08/06 05:04:59;;;;;;;3.23;2.93;;;22.00;79.80;22.20;96983.00;;;;5052214;28;20706;-84
2022/08/06 05:07:32;;;;;;;2.40;2.30;;;21.90;79.70;22.20;96986.00;;;;5052592;28;20291;-84
2022/08/06 05:10:00;;;;;;;2.67;2.53;;;21.80;79.90;22.10;96983.00;;;;5052094;28;20631;-85
2022/08/06 05:12:36;;;;;;;3.03;2.83;;;21.80;80.00;22.10;96986.00;;;;5045997;28;20697;-84
2022/08/06 05:15:10;;;;;;;2.83;2.63;;;21.80;80.00;22.10;96987.00;;;;5049329;28;20286;-83
2022/08/06 05:17:46;;;;;;;3.17;2.97;;;21.70;79.90;22.00;96997.00;;;;5053350;28;20297;-84
2022/08/06 05:20:19;;;;;;;2.80;2.60;;;21.70;80.10;22.00;97001.00;;;;5052676;28;20241;-87
2022/08/06 05:22:52;;;;;;;2.93;2.73;;;21.60;79.50;21.90;96997.00;;;;5052903;28;20299;-84
2022/08/06 05:25:20;;;;;;;2.53;2.33;;;21.60;79.50;21.90;97000.00;;;;5052595;28;20298;-83
2022/08/06 05:27:47;;;;;;;4.27;2.50;;;21.50;79.40;21.80;97005.00;;;;5051589;28;20202;-84
2022/08/06 05:30:15;;;;;;;2.20;2.10;;;21.50;79.20;21.80;97014.00;;;;5041927;28;20613;-84
2022/08/06 05:32:43;;;;;;;2.50;2.40;;;21.40;79.00;21.70;97017.00;;;;5053222;28;20233;-84
2022/08/06 05:35:10;;;;;;;2.13;2.03;;;21.40;79.10;21.70;97020.00;;;;5052737;28;20373;-84
2022/08/06 05:37:39;;;;;;;2.23;2.13;;;21.30;78.80;21.70;97027.00;;;;5050965;28;20755;-83
2022/08/06 05:40:08;;;;;;;2.27;2.07;;;21.30;78.80;21.60;97024.00;;;;5051620;28;20230;-83
2022/08/06 05:42:36;;;;;;;2.37;2.20;;;21.20;78.70;21.50;97028.00;;;;5052035;28;20263;-84
2022/08/06 05:45:05;;;;;;;2.40;2.20;;;21.20;78.20;21.50;97040.00;;;;5052174;28;20503;-83
2022/08/06 05:47:38;;;;;;;2.40;2.30;;;21.10;78.20;21.40;97038.00;;;;5051756;28;20266;-83
2022/08/06 05:50:11;;;;;;;2.00;1.90;;;21.10;77.90;21.30;97036.00;;;;5052440;28;20615;-84
2022/08/06 05:52:48;;;;;;;2.57;2.37;;;21.00;78.20;21.30;97043.00;;;;5044438;28;20189;-84
2022/08/06 05:55:22;;;;;;;1.80;1.70;;;20.90;78.40;21.20;97045.00;;;;5051981;28;20266;-84
2022/08/06 05:57:57;;;;;;;2.10;2.00;;;20.90;78.60;21.20;97042.00;;;;5048460;28;20231;-83
2022/08/06 06:00:29;;;;;;;2.10;2.00;;;20.80;78.80;21.20;97041.00;;;;5051449;28;20196;-85
2022/08/06 06:03:01;;;;;;;2.37;2.27;;;20.80;79.20;21.10;97040.00;;;;5045052;28;20220;-84
2022/08/06 06:05:30;;;;;;;1.90;1.80;;;20.80;79.30;21.10;97044.00;;;;5041526;28;20247;-83
2022/08/06 06:07:59;;;;;;;2.33;2.20;;;20.80;79.20;21.10;97052.00;;;;5052252;28;20197;-85
2022/08/06 06:10:28;;;;;;;2.17;2.07;;;20.70;79.30;21.10;97058.00;;;;5051659;28;20279;-85
2022/08/06 06:12:57;;;;;;;2.00;1.90;;;20.70;79.40;21.10;97063.00;;;;5055855;28;20669;-84
2022/08/06 06:15:25;;;;;;;2.43;2.23;;;20.70;79.00;21.10;97056.00;;;;5050550;28;20259;-85
2022/08/06 06:18:22;;;;;;;2.10;1.90;;;20.70;78.80;21.10;97049.00;;;;5053224;28;20209;-84
2022/08/06 06:21:03;;;;;;;2.60;2.40;;;20.70;78.30;21.10;97049.00;;;;5049115;28;20715;-85
2022/08/06 06:23:41;;;;;;;2.00;1.90;;;20.70;78.60;21.10;97058.00;;;;5052497;28;20220;-85
2022/08/06 06:26:25;;;;;;;2.20;2.10;;;20.70;78.40;21.10;97062.00;;;;5056846;28;20195;-83
2022/08/06 06:29:02;;;;;;;2.50;2.30;;;20.70;78.30;21.10;97059.00;;;;5056842;28;20728;-83
2022/08/06 06:31:38;;;;;;;2.70;2.50;;;20.60;78.70;21.10;97066.00;;;;5052474;28;20629;-83
2022/08/06 06:34:12;;;;;;;2.70;2.50;;;20.60;79.00;21.10;97074.00;;;;5033970;28;20717;-85
2022/08/06 06:36:52;;;;;;;2.50;2.40;;;20.60;79.10;21.10;97080.00;;;;5037999;28;20228;-82
2022/08/06 06:39:32;;;;;;;3.00;2.80;;;20.60;78.90;21.00;97081.00;;;;5053849;28;20185;-83
2022/08/06 06:42:10;;;;;;;2.80;2.60;;;20.60;79.00;21.00;97093.00;;;;5051370;28;20258;-83
2022/08/06 06:44:45;;;;;;;2.50;2.30;;;20.60;79.10;21.00;97093.00;;;;5034634;28;20768;-83
2022/08/06 06:47:21;;;;;;;2.73;2.53;;;20.60;79.00;21.00;97093.00;;;;5036232;28;20745;-83
2022/08/06 06:49:56;;;;;;;2.87;2.63;;;20.60;79.00;21.10;97098.00;;;;5053335;28;20276;-83
2022/08/06 06:52:28;;;;;;;3.70;3.40;;;20.60;79.10;21.10;97095.00;;;;5043821;28;20192;-84
2022/08/06 06:55:05;;;;;;;3.50;3.00;;;20.60;79.10;21.10;97103.00;;;;5050320;28;20216;-83
2022/08/06 06:57:39;;;;;;;3.20;3.00;;;20.60;79.30;21.10;97095.00;;;;5048076;28;20235;-83
2022/08/06 07:00:08;;;;;;;3.57;3.37;;;20.60;79.60;21.10;97112.00;;;;5035016;28;20278;-84
2022/08/06 07:02:40;;;;;;;3.80;3.60;;;20.60;79.60;21.20;97114.00;;;;5044032;28;20282;-83
2022/08/06 07:05:09;;;;;;;3.67;3.47;;;20.60;79.30;21.20;97117.00;;;;5051781;28;20222;-84
2022/08/06 07:07:42;;;;;;;3.40;3.17;;;20.60;79.30;21.20;97113.00;;;;5058291;28;20220;-83
2022/08/06 07:10:13;;;;;;;3.97;3.53;;;20.60;79.50;21.20;97119.00;;;;5053230;28;20246;-83
2022/08/06 07:12:44;;;;;;;3.90;3.60;;;20.70;79.30;21.20;97114.00;;;;5053130;28;20225;-83
2022/08/06 07:15:15;;;;;;;4.40;4.00;;;20.70;79.10;21.20;97112.00;;;;5052332;28;20301;-84
2022/08/06 07:17:44;;;;;;;3.97;3.63;;;20.70;79.20;21.30;97110.00;;;;5051947;28;20291;-86
2022/08/06 07:20:14;;;;;;;3.63;3.43;;;20.70;80.40;21.30;97109.00;;;;5052046;28;20194;-85
2022/08/06 07:22:45;;;;;;;3.80;3.50;;;20.70;79.70;21.30;97106.00;;;;5051891;28;20648;-85
2022/08/06 07:25:16;;;;;;;4.00;3.70;;;20.80;79.70;21.30;97113.00;;;;5052279;28;20221;-83
2022/08/06 07:27:49;;;;;;;4.40;4.00;;;20.80;79.60;21.40;97117.00;;;;5055900;28;20628;-83
2022/08/06 07:30:19;;;;;;;3.63;3.33;;;20.80;79.50;21.40;97119.00;;;;5057890;28;20236;-83
2022/08/06 07:32:49;;;;;;;3.83;3.60;;;20.80;79.40;21.40;97123.00;;;;5056678;28;20451;-86
2022/08/06 07:35:19;;;;;;;4.00;3.70;;;20.80;79.20;21.40;97126.00;;;;5051865;28;20209;-83
2022/08/06 07:37:55;;;;;;;3.63;3.43;;;20.80;79.00;21.40;97134.00;;;;5053621;28;20223;-84
2022/08/06 07:40:30;;;;;;;3.97;3.67;;;20.90;79.10;21.40;97138.00;;;;5053314;28;20196;-83
2022/08/06 07:43:06;;;;;;;3.77;3.43;;;20.90;78.60;21.40;97135.00;;;;5053269;28;20233;-83
2022/08/06 07:45:34;;;;;;;4.23;3.70;;;20.90;78.70;21.40;97140.00;;;;5047455;28;20256;-83
2022/08/06 07:48:09;;;;;;;3.73;3.53;;;20.90;79.60;21.40;97140.00;;;;5059828;28;20197;-85
2022/08/06 07:50:39;;;;;;;4.07;3.77;;;20.90;79.10;21.40;97143.00;;;;5056793;28;20727;-86
2022/08/06 07:53:08;;;;;;;4.10;3.80;;;20.90;79.10;21.40;97141.00;;;;5057786;28;20667;-85
2022/08/06 07:55:38;;;;;;;4.10;3.80;;;20.90;78.90;21.40;97142.00;;;;5054737;28;20696;-86
2022/08/06 07:58:07;;;;;;;3.77;3.47;;;20.90;78.70;21.40;97150.00;;;;5053052;28;20662;-85
2022/08/06 08:00:36;;;;;;;4.07;3.40;;;20.90;78.60;21.40;97146.00;;;;5057156;28;20209;-88
2022/08/06 08:08:38;;;;;;;3.80;3.30;;;20.90;78.60;21.40;97156.00;;;;5055026;28;20195;-85
2022/08/06 08:11:09;;;;;;;4.30;3.87;;;20.90;78.80;21.50;97159.00;;;;5055881;28;20246;-86
2022/08/06 08:13:38;;;;;;;4.13;3.83;;;21.00;79.00;21.50;97162.00;;;;5056034;28;20239;-86
2022/08/06 08:16:09;;;;;;;3.83;3.53;;;21.00;79.10;21.50;97157.00;;;;5044649;28;20238;-86
2022/08/06 08:18:36;;;;;;;3.93;3.63;;;21.00;79.10;21.60;97158.00;;;;5055101;28;20281;-87
2022/08/06 08:21:04;;;;;;;3.83;3.63;;;21.00;79.10;21.60;97157.00;;;;5054902;28;20224;-87
2022/08/06 08:23:32;;;;;;;4.30;4.00;;;21.00;79.20;21.60;97161.00;;;;5049197;28;20308;-87
2022/08/06 08:26:02;;;;;;;3.60;3.40;;;21.00;78.90;21.60;97166.00;;;;5051861;28;20562;-86
2022/08/06 08:28:31;;;;;;;3.63;3.43;;;21.10;78.80;21.60;97159.00;;;;5055415;28;20201;-86
2022/08/06 08:31:01;;;;;;;3.70;3.50;;;21.10;78.70;21.60;97166.00;;;;5055156;28;20207;-85
2022/08/06 08:33:29;;;;;;;3.63;3.40;;;21.10;78.90;21.60;97167.00;;;;5055316;28;20211;-86
2022/08/06 08:35:57;;;;;;;3.53;3.33;;;21.10;78.90;21.60;97168.00;;;;5053876;28;20228;-86
2022/08/06 08:38:24;;;;;;;3.73;3.53;;;21.10;78.80;21.60;97170.00;;;;5054296;28;20270;-86
2022/08/06 08:40:55;;;;;;;3.70;3.50;;;21.10;79.30;21.70;97174.00;;;;5053320;28;20327;-86
2022/08/06 08:43:30;;;;;;;3.70;3.40;;;21.10;78.80;21.70;97176.00;;;;5054071;28;20216;-85
2022/08/06 08:46:02;;;;;;;3.10;2.90;;;21.10;79.10;21.80;97171.00;;;;5054389;28;20278;-83
2022/08/06 08:48:32;;;;;;;3.33;3.03;;;21.20;79.60;21.90;97172.00;;;;5054360;28;20198;-86
2022/08/06 08:51:01;;;;;;;3.40;3.00;;;21.20;79.30;22.00;97172.00;;;;5053416;28;20685;-86
2022/08/06 08:53:37;;;;;;;3.37;3.13;;;21.30;79.20;22.00;97177.00;;;;5054029;28;20210;-87
2022/08/06 08:56:07;;;;;;;3.90;3.60;;;21.30;79.40;22.10;97171.00;;;;5047305;28;20653;-86
2022/08/06 08:58:37;;;;;;;3.40;3.20;;;21.40;79.40;22.20;97176.00;;;;5053352;28;20245;-87
2022/08/06 09:01:09;;;;;;;3.27;3.07;;;21.40;79.30;22.30;97179.00;;;;5052956;28;20289;-87
2022/08/06 09:03:40;;;;;;;3.13;2.93;;;21.50;79.30;22.30;97177.00;;;;5053855;28;20587;-84
2022/08/06 09:06:08;;;;;;;3.10;2.80;;;21.60;79.30;22.40;97175.00;;;;5048539;28;20632;-86
2022/08/06 09:08:37;;;;;;;3.13;2.93;;;21.60;79.00;22.40;97177.00;;;;5060645;28;20195;-86
2022/08/06 09:11:06;;;;;;;2.90;2.70;;;21.70;78.90;22.50;97183.00;;;;5058791;28;20204;-86
2022/08/06 09:13:33;;;;;;;3.40;3.10;;;21.70;78.70;22.60;97185.00;;;;5053708;28;20205;-86
2022/08/06 09:16:01;;;;;;;3.27;3.03;;;21.80;78.80;22.60;97186.00;;;;5053750;28;20199;-86
2022/08/06 09:18:30;;;;;;;2.73;2.63;;;21.80;78.50;22.70;97188.00;;;;5052950;28;20283;-86
2022/08/06 09:21:01;;;;;;;3.30;3.10;;;21.90;78.30;22.70;97192.00;;;;5051175;28;20670;-86
2022/08/06 09:23:29;;;;;;;3.13;2.93;;;21.90;78.20;22.80;97187.00;;;;5053423;28;20551;-86
2022/08/06 09:25:56;;;;;;;2.83;2.70;;;22.00;78.50;22.90;97196.00;;;;5051717;28;20232;-86
2022/08/06 09:28:35;;;;;;;2.80;2.60;;;22.10;78.10;22.90;97194.00;;;;5053063;28;20228;-87
2022/08/06 09:31:07;;;;;;;2.87;2.77;;;22.10;77.20;23.00;97196.00;;;;5039118;28;20223;-86
2022/08/06 09:33:39;;;;;;;3.00;2.80;;;22.20;77.40;23.00;97202.00;;;;5052817;28;20247;-86
2022/08/06 09:36:09;;;;;;;3.00;2.80;;;22.20;77.20;23.10;97199.00;;;;5052478;28;20181;-87
2022/08/06 09:38:48;;;;;;;2.90;2.70;;;22.30;77.50;23.20;97200.00;;;;5052942;28;20197;-87
2022/08/06 09:41:17;;;;;;;4.53;2.90;;;22.40;77.20;23.30;97202.00;;;;5052318;28;20228;-86
2022/08/06 09:43:45;;;;;;;3.03;2.83;;;22.40;77.10;23.40;97204.00;;;;5051071;28;20255;-86
2022/08/06 09:46:13;;;;;;;2.83;2.73;;;22.50;76.70;23.50;97200.00;;;;5043512;28;20280;-85
2022/08/06 09:48:58;;;;;;;3.03;2.83;;;22.60;76.70;23.50;97207.00;;;;5049937;28;20298;-87
2022/08/06 09:51:27;;;;;;;2.97;2.73;;;22.70;75.90;23.60;97216.00;;;;5043997;28;20683;-86
2022/08/06 09:53:55;;;;;;;2.50;2.40;;;22.70;76.50;23.70;97206.00;;;;5049094;28;20239;-86
2022/08/06 09:56:23;;;;;;;2.77;2.57;;;22.80;76.80;23.70;97213.00;;;;5038811;28;20237;-88
2022/08/06 09:58:51;;;;;;;3.23;3.03;;;22.90;76.10;23.80;97213.00;;;;5049893;28;20211;-87
2022/08/06 10:01:24;;;;;;;2.83;2.73;;;22.90;75.70;23.90;97205.00;;;;5049962;28;20189;-86
2022/08/06 10:03:55;;;;;;;2.60;2.47;;;23.00;75.50;24.00;97209.00;;;;5048727;28;20250;-87
2022/08/06 10:06:25;;;;;;;2.63;2.53;;;23.10;75.50;24.10;97214.00;;;;5034512;28;20232;-86
2022/08/06 10:09:08;;;;;;;3.00;2.80;;;23.20;75.50;24.20;97213.00;;;;5047437;28;20201;-86
2022/08/06 10:11:39;;;;;;;2.80;2.60;;;23.30;74.30;24.30;97220.00;;;;5034132;28;20189;-87
2022/08/06 10:14:06;;;;;;;3.50;3.20;;;23.30;74.80;24.30;97223.00;;;;5033572;28;20295;-86
2022/08/06 10:16:34;;;;;;;4.77;3.80;;;23.30;74.30;24.30;97226.00;;;;5050681;28;20247;-84
2022/08/06 10:19:06;;;;;;;4.03;3.83;;;23.40;73.60;24.30;97217.00;;;;5051409;28;20301;-86
2022/08/06 10:21:35;;;;;;;4.30;3.90;;;23.40;73.40;24.30;97228.00;;;;5050673;28;20190;-85
2022/08/06 10:24:06;;;;;;;4.50;4.20;;;23.50;73.70;24.40;97224.00;;;;5051358;28;20278;-85
2022/08/06 10:26:34;;;;;;;4.63;4.27;;;23.50;73.20;24.40;97227.00;;;;5051613;28;20228;-86
2022/08/06 10:29:05;;;;;;;5.00;4.60;;;23.50;73.70;24.40;97229.00;;;;5051199;28;20211;-87
2022/08/06 10:31:34;;;;;;;5.13;4.83;;;23.60;73.10;24.50;97230.00;;;;5051761;28;20185;-87
2022/08/06 10:34:10;;;;;;;4.60;4.30;;;23.60;72.60;24.50;97236.00;;;;5051802;28;20213;-87
2022/08/06 10:36:41;;;;;;;4.83;4.43;;;23.60;72.40;24.60;97236.00;;;;5049653;28;20262;-86
2022/08/06 10:39:09;;;;;;;4.30;3.97;;;23.70;72.80;24.70;97233.00;;;;5039926;28;20613;-85
2022/08/06 10:41:40;;;;;;;5.17;4.77;;;23.70;72.60;24.70;97231.00;;;;5052022;28;20634;-86
2022/08/06 10:44:08;;;;;;;5.00;4.67;;;23.80;72.20;24.70;97239.00;;;;5045514;28;20225;-86
2022/08/06 10:46:37;;;;;;;4.70;4.30;;;23.80;72.00;24.70;97233.00;;;;5048261;28;20250;-87
2022/08/06 10:49:08;;;;;;;5.63;4.27;;;23.80;71.40;24.80;97230.00;;;;5037295;28;20249;-86
2022/08/06 10:51:37;;;;;;;4.07;3.83;;;23.90;70.80;24.80;97231.00;;;;5054159;28;20297;-86
2022/08/06 10:54:05;;;;;;;5.63;5.13;;;23.90;71.70;24.90;97231.00;;;;5057588;28;20213;-86
2022/08/06 10:56:34;;;;;;;5.17;4.73;;;23.90;71.80;24.90;97232.00;;;;5050866;28;20248;-86
2022/08/06 10:59:02;;;;;;;4.60;4.30;;;24.00;71.10;24.90;97233.00;;;;5051445;28;20978;-85
2022/08/06 11:01:44;;;;;;;4.53;4.20;;;24.00;70.90;24.90;97229.00;;;;5051334;28;20244;-86
2022/08/06 11:04:26;;;;;;;5.17;4.87;;;24.00;70.40;25.00;97227.00;;;;5051813;28;20264;-86
2022/08/06 11:07:20;;;;;;;4.20;3.80;;;24.10;70.20;25.10;97226.00;;;;5051404;28;20292;-86
2022/08/06 11:10:10;;;;;;;4.30;4.00;;;24.10;70.50;25.20;97220.00;;;;5051661;28;20572;-86
2022/08/06 11:12:50;;;;;;;4.10;3.70;;;24.20;68.80;25.20;97221.00;;;;5044502;28;20229;-86
2022/08/06 11:15:19;;;;;;;5.20;4.07;;;24.20;69.30;25.20;97219.00;;;;5037696;28;20311;-86
2022/08/06 11:17:49;;;;;;;4.07;3.87;;;24.20;69.70;25.30;97223.00;;;;5052503;28;20589;-87
2022/08/06 11:20:40;;;;;;;3.97;3.60;;;24.30;69.90;25.40;97213.00;;;;5055212;28;20678;-87